sensor_id;sensor_type;location;lat;lon;timestamp;pressure;altitude;pressure_sealevel;temperature;humidity
71057;BME280;58380;48.312;9.246;2022-09-17T04:54:21;93260.09;;;5.58;98.89
71057;BME280;58380;48.312;9.246;2022-09-17T04:56:47;93257.56;;;5.63;98.48
71057;BME280;58380;48.312;9.246;2022-09-17T04:59:12;93197.34;;;5.29;97.32
71057;BME280;58380;48.312;9.246;2022-09-17T05:01:38;93231.06;;;5.43;99.14
71057;BME280;58380;48.312;9.246;2022-09-17T05:04:03;93267.66;;;5.71;98.99
71057;BME280;58380;48.312;9.246;2022-09-17T05:06:29;93268.84;;;5.63;97.49
71057;BME280;58380;48.312;9.246;2022-09-17T05:08:54;93274.50;;;5.72;98.65
71057;BME280;58380;48.312;9.246;2022-09-17T05:11:19;93288.16;;;5.74;98.06
71057;BME280;58380;48.312;9.246;2022-09-17T05:13:45;93288.00;;;5.81;98.21
71057;BME280;58380;48.312;9.246;2022-09-17T05:16:10;93293.00;;;5.82;98.96
71057;BME280;58380;48.312;9.246;2022-09-17T05:18:36;93282.09;;;5.74;97.27
71057;BME280;58380;48.312;9.246;2022-09-17T05:21:01;93240.81;;;5.47;97.30
71057;BME280;58380;48.312;9.246;2022-09-17T05:23:27;93263.59;;;5.63;98.50
71057;BME280;58380;48.312;9.246;2022-09-17T05:25:56;93270.53;;;5.70;98.90
71057;BME280;58380;48.312;9.246;2022-09-17T05:28:24;93306.50;;;5.91;97.87
71057;BME280;58380;48.312;9.246;2022-09-17T05:30:49;93286.72;;;5.83;98.02
71057;BME280;58380;48.312;9.246;2022-09-17T05:33:14;93284.59;;;5.80;98.55
71057;BME280;58380;48.312;9.246;2022-09-17T05:35:40;93291.88;;;5.78;97.98
71057;BME280;58380;48.312;9.246;2022-09-17T05:38:08;93254.56;;;5.54;97.83
71057;BME280;58380;48.312;9.246;2022-09-17T05:40:33;93285.84;;;5.78;96.03
71057;BME280;58380;48.312;9.246;2022-09-17T05:43:04;93311.72;;;5.91;96.99
71057;BME280;58380;48.312;9.246;2022-09-17T05:45:34;93316.63;;;5.99;98.15
71057;BME280;58380;48.312;9.246;2022-09-17T05:48:02;93309.38;;;5.90;95.93
71057;BME280;58380;48.312;9.246;2022-09-17T05:50:30;93301.56;;;5.78;97.10
71057;BME280;58380;48.312;9.246;2022-09-17T05:53:02;93324.94;;;5.96;96.27
71057;BME280;58380;48.312;9.246;2022-09-17T05:55:29;93278.44;;;5.58;96.67
71057;BME280;58380;48.312;9.246;2022-09-17T05:57:55;93318.72;;;5.86;94.72
71057;BME280;58380;48.312;9.246;2022-09-17T06:00:21;93303.41;;;5.77;94.79
71057;BME280;58380;48.312;9.246;2022-09-17T06:02:53;93319.59;;;5.91;94.87
71057;BME280;58380;48.312;9.246;2022-09-17T06:05:23;93265.66;;;5.61;94.99
71057;BME280;58380;48.312;9.246;2022-09-17T06:07:52;93248.16;;;5.62;95.62
71057;BME280;58380;48.312;9.246;2022-09-17T06:10:17;93274.97;;;5.86;96.84
71057;BME280;58380;48.312;9.246;2022-09-17T06:12:43;93261.97;;;5.74;95.66
71057;BME280;58380;48.312;9.246;2022-09-17T06:15:09;93336.50;;;6.29;94.47
71057;BME280;58380;48.312;9.246;2022-09-17T06:17:39;93307.28;;;6.20;95.65
71057;BME280;58380;48.312;9.246;2022-09-17T06:20:05;93313.69;;;6.13;94.21
71057;BME280;58380;48.312;9.246;2022-09-17T06:22:31;93340.56;;;6.20;94.82
71057;BME280;58380;48.312;9.246;2022-09-17T06:24:57;93283.22;;;5.78;96.01
71057;BME280;58380;48.312;9.246;2022-09-17T06:27:29;93354.13;;;6.17;96.24
71057;BME280;58380;48.312;9.246;2022-09-17T06:29:58;93269.97;;;5.68;95.98
71057;BME280;58380;48.312;9.246;2022-09-17T06:32:24;93357.38;;;6.24;94.05
71057;BME280;58380;48.312;9.246;2022-09-17T06:34:50;93300.06;;;5.82;94.63
71057;BME280;58380;48.312;9.246;2022-09-17T06:37:15;93369.47;;;6.25;94.83
71057;BME280;58380;48.312;9.246;2022-09-17T06:39:41;93329.41;;;5.96;94.17
71057;BME280;58380;48.312;9.246;2022-09-17T06:42:06;93339.59;;;6.09;95.12
71057;BME280;58380;48.312;9.246;2022-09-17T06:44:32;93325.03;;;6.01;96.25
71057;BME280;58380;48.312;9.246;2022-09-17T06:46:57;93348.72;;;6.23;96.12
71057;BME280;58380;48.312;9.246;2022-09-17T06:49:23;93312.56;;;6.09;95.74
71057;BME280;58380;48.312;9.246;2022-09-17T06:51:48;93336.41;;;6.24;95.38
71057;BME280;58380;48.312;9.246;2022-09-17T06:54:14;93354.38;;;6.32;93.36
71057;BME280;58380;48.312;9.246;2022-09-17T06:56:39;93251.69;;;5.56;92.67
71057;BME280;58380;48.312;9.246;2022-09-17T06:59:05;93347.06;;;6.17;93.91
71057;BME280;58380;48.312;9.246;2022-09-17T07:01:30;93315.38;;;6.02;90.93
71057;BME280;58380;48.312;9.246;2022-09-17T07:03:56;93286.91;;;5.77;92.24
71057;BME280;58380;48.312;9.246;2022-09-17T07:06:22;93316.00;;;6.09;92.73
71057;BME280;58380;48.312;9.246;2022-09-17T07:08:48;93360.09;;;6.29;92.64
71057;BME280;58380;48.312;9.246;2022-09-17T07:11:13;93360.19;;;6.34;90.31
71057;BME280;58380;48.312;9.246;2022-09-17T07:13:41;93326.94;;;6.06;89.41
71057;BME280;58380;48.312;9.246;2022-09-17T07:16:08;93372.41;;;6.45;89.94
71057;BME280;58380;48.312;9.246;2022-09-17T07:18:34;93263.16;;;5.83;88.37
71057;BME280;58380;48.312;9.246;2022-09-17T07:21:05;93308.47;;;6.13;88.35
71057;BME280;58380;48.312;9.246;2022-09-17T07:23:33;93356.13;;;6.60;88.53
71057;BME280;58380;48.312;9.246;2022-09-17T07:26:11;93282.25;;;6.13;89.52
71057;BME280;58380;48.312;9.246;2022-09-17T07:28:39;93321.88;;;6.33;88.91
71057;BME280;58380;48.312;9.246;2022-09-17T07:31:06;93286.88;;;6.22;90.07
71057;BME280;58380;48.312;9.246;2022-09-17T07:33:35;93353.66;;;6.70;89.20
71057;BME280;58380;48.312;9.246;2022-09-17T07:36:16;93343.00;;;6.60;89.83
71057;BME280;58380;48.312;9.246;2022-09-17T07:38:42;93354.69;;;6.53;86.57
71057;BME280;58380;48.312;9.246;2022-09-17T07:41:13;93340.88;;;6.40;88.25
71057;BME280;58380;48.312;9.246;2022-09-17T07:43:44;93384.88;;;6.55;88.48
71057;BME280;58380;48.312;9.246;2022-09-17T07:46:17;93340.06;;;6.23;88.62
71057;BME280;58380;48.312;9.246;2022-09-17T07:48:44;93357.47;;;6.29;89.79
71057;BME280;58380;48.312;9.246;2022-09-17T07:51:18;93364.25;;;6.42;90.55
71057;BME280;58380;48.312;9.246;2022-09-17T07:53:50;93359.84;;;6.47;90.73
71057;BME280;58380;48.312;9.246;2022-09-17T07:56:21;93299.31;;;6.15;88.10
71057;BME280;58380;48.312;9.246;2022-09-17T07:58:47;93384.56;;;6.85;88.63
71057;BME280;58380;48.312;9.246;2022-09-17T08:01:14;93292.19;;;6.28;88.13
71057;BME280;58380;48.312;9.246;2022-09-17T08:03:42;93388.66;;;6.98;87.66
71057;BME280;58380;48.312;9.246;2022-09-17T08:06:14;93381.22;;;6.90;87.21
71057;BME280;58380;48.312;9.246;2022-09-17T08:08:42;93395.91;;;7.08;87.03
71057;BME280;58380;48.312;9.246;2022-09-17T08:11:13;93325.28;;;6.67;87.85
71057;BME280;58380;48.312;9.246;2022-09-17T08:13:40;93393.28;;;7.08;86.14
71057;BME280;58380;48.312;9.246;2022-09-17T08:16:08;93395.09;;;7.07;89.50
71057;BME280;58380;48.312;9.246;2022-09-17T08:18:37;93408.22;;;7.07;88.27
71057;BME280;58380;48.312;9.246;2022-09-17T08:21:05;93325.44;;;6.44;92.10
71057;BME280;58380;48.312;9.246;2022-09-17T08:23:36;93371.84;;;6.77;91.08
71057;BME280;58380;48.312;9.246;2022-09-17T08:26:04;93404.41;;;6.81;91.18
71057;BME280;58380;48.312;9.246;2022-09-17T08:28:35;93371.38;;;6.63;93.53
71057;BME280;58380;48.312;9.246;2022-09-17T08:31:03;93390.94;;;6.73;94.52
71057;BME280;58380;48.312;9.246;2022-09-17T08:33:31;93387.03;;;6.75;93.11
71057;BME280;58380;48.312;9.246;2022-09-17T08:35:58;93384.09;;;6.55;94.98
71057;BME280;58380;48.312;9.246;2022-09-17T08:38:25;93424.78;;;6.57;94.26
71057;BME280;58380;48.312;9.246;2022-09-17T08:43:42;93422.66;;;6.54;94.72
71057;BME280;58380;48.312;9.246;2022-09-17T08:46:19;93419.13;;;6.48;95.14
71057;BME280;58380;48.312;9.246;2022-09-17T08:48:47;93430.50;;;6.71;95.13
71057;BME280;58380;48.312;9.246;2022-09-17T08:51:41;93360.91;;;6.30;95.55
71057;BME280;58380;48.312;9.246;2022-09-17T08:54:29;93378.53;;;6.51;94.76
71057;BME280;58380;48.312;9.246;2022-09-17T08:57:22;93408.50;;;6.72;95.59
71057;BME280;58380;48.312;9.246;2022-09-17T09:00:16;93409.50;;;6.71;94.16
71057;BME280;58380;48.312;9.246;2022-09-17T09:05:43;93417.25;;;6.78;91.36
71057;BME280;58380;48.312;9.246;2022-09-17T09:11:04;93429.56;;;6.94;92.24
71057;BME280;58380;48.312;9.246;2022-09-17T09:13:53;93411.56;;;7.03;91.74
71057;BME280;58380;48.312;9.246;2022-09-17T09:16:27;93376.41;;;7.04;92.06
71057;BME280;58380;48.312;9.246;2022-09-17T09:19:01;93413.66;;;7.40;90.62
71057;BME280;58380;48.312;9.246;2022-09-17T09:24:25;93419.81;;;7.50;88.92
71057;BME280;58380;48.312;9.246;2022-09-17T09:27:13;93423.56;;;7.54;87.46
71057;BME280;58380;48.312;9.246;2022-09-17T09:32:52;93441.00;;;7.44;90.71
71057;BME280;58380;48.312;9.246;2022-09-17T09:35:31;93418.34;;;7.38;87.03
71057;BME280;58380;48.312;9.246;2022-09-17T09:38:55;93398.38;;;7.37;90.05
71057;BME280;58380;48.312;9.246;2022-09-17T09:41:23;93430.09;;;7.52;88.92
71057;BME280;58380;48.312;9.246;2022-09-17T09:44:03;93435.97;;;7.59;85.29
71057;BME280;58380;48.312;9.246;2022-09-17T09:52:56;93439.75;;;7.68;86.75
71057;BME280;58380;48.312;9.246;2022-09-17T09:58:34;93432.56;;;8.08;82.23
71057;BME280;58380;48.312;9.246;2022-09-17T10:01:02;93432.94;;;8.16;83.24
71057;BME280;58380;48.312;9.246;2022-09-17T10:03:39;93428.06;;;8.03;81.38
71057;BME280;58380;48.312;9.246;2022-09-17T10:06:09;93435.94;;;8.03;81.56
71057;BME280;58380;48.312;9.246;2022-09-17T10:08:44;93434.38;;;8.02;82.83
71057;BME280;58380;48.312;9.246;2022-09-17T10:11:31;93426.47;;;8.02;82.44
71057;BME280;58380;48.312;9.246;2022-09-17T10:16:52;93422.81;;;7.81;83.06
71057;BME280;58380;48.312;9.246;2022-09-17T10:19:34;93396.38;;;7.66;82.80
71057;BME280;58380;48.312;9.246;2022-09-17T10:22:24;93430.41;;;7.77;83.87
71057;BME280;58380;48.312;9.246;2022-09-17T10:24:56;93426.81;;;7.62;82.92
71057;BME280;58380;48.312;9.246;2022-09-17T10:27:24;93436.44;;;7.78;83.39
71057;BME280;58380;48.312;9.246;2022-09-17T10:30:01;93443.47;;;7.94;82.61
71057;BME280;58380;48.312;9.246;2022-09-17T10:32:33;93437.22;;;8.00;83.97
71057;BME280;58380;48.312;9.246;2022-09-17T10:35:02;93428.09;;;8.08;82.33
71057;BME280;58380;48.312;9.246;2022-09-17T10:37:52;93435.72;;;8.32;81.80
71057;BME280;58380;48.312;9.246;2022-09-17T10:45:26;93439.16;;;8.32;77.90
71057;BME280;58380;48.312;9.246;2022-09-17T10:47:55;93384.84;;;8.21;78.58
71057;BME280;58380;48.312;9.246;2022-09-17T10:50:26;93408.25;;;8.45;77.45
71057;BME280;58380;48.312;9.246;2022-09-17T10:52:56;93445.25;;;8.65;78.19
71057;BME280;58380;48.312;9.246;2022-09-17T10:55:43;93452.38;;;8.64;78.42
71057;BME280;58380;48.312;9.246;2022-09-17T11:04:25;93440.06;;;8.43;77.21
71057;BME280;58380;48.312;9.246;2022-09-17T11:07:24;93434.38;;;8.51;76.78
71057;BME280;58380;48.312;9.246;2022-09-17T11:10:20;93446.38;;;8.69;78.45
71057;BME280;58380;48.312;9.246;2022-09-17T11:13:09;93443.72;;;9.01;75.53
71057;BME280;58380;48.312;9.246;2022-09-17T11:24:29;93429.53;;;8.70;73.91
71057;BME280;58380;48.312;9.246;2022-09-17T11:27:26;93434.03;;;8.75;73.86
71057;BME280;58380;48.312;9.246;2022-09-17T11:30:17;93444.78;;;9.05;73.02
71057;BME280;58380;48.312;9.246;2022-09-17T11:35:52;93447.81;;;9.19;72.62
71057;BME280;58380;48.312;9.246;2022-09-17T11:43:52;93414.44;;;9.98;69.28
71057;BME280;58380;48.312;9.246;2022-09-17T11:46:33;93414.91;;;9.75;67.47
71057;BME280;58380;48.312;9.246;2022-09-17T11:49:11;93441.25;;;9.75;70.19
71057;BME280;58380;48.312;9.246;2022-09-17T11:51:49;93435.66;;;9.61;71.72
71057;BME280;58380;48.312;9.246;2022-09-17T11:57:14;93438.41;;;9.34;71.82
71057;BME280;58380;48.312;9.246;2022-09-17T11:59:49;93416.47;;;9.23;72.98
71057;BME280;58380;48.312;9.246;2022-09-17T12:02:51;93440.81;;;9.40;73.16
71057;BME280;58380;48.312;9.246;2022-09-17T12:05:33;93448.97;;;9.34;75.46
71057;BME280;58380;48.312;9.246;2022-09-17T12:08:22;93407.84;;;9.33;74.60
71057;BME280;58380;48.312;9.246;2022-09-17T12:11:25;93401.38;;;9.56;73.90
71057;BME280;58380;48.312;9.246;2022-09-17T12:14:21;93401.13;;;9.57;70.58
71057;BME280;58380;48.312;9.246;2022-09-17T12:16:57;93403.56;;;9.74;69.83
71057;BME280;58380;48.312;9.246;2022-09-17T12:19:35;93410.19;;;9.77;67.88
71057;BME280;58380;48.312;9.246;2022-09-17T12:22:09;93374.75;;;9.52;68.50
71057;BME280;58380;48.312;9.246;2022-09-17T12:24:42;93367.84;;;9.41;68.86
71057;BME280;58380;48.312;9.246;2022-09-17T12:30:11;93389.78;;;9.57;69.35
71057;BME280;58380;48.312;9.246;2022-09-17T12:35:58;93400.66;;;9.70;65.40
71057;BME280;58380;48.312;9.246;2022-09-17T12:39:17;93397.84;;;9.92;67.54
71057;BME280;58380;48.312;9.246;2022-09-17T12:45:25;93361.16;;;9.86;67.65
71057;BME280;58380;48.312;9.246;2022-09-17T12:48:12;93390.63;;;10.51;67.22
71057;BME280;58380;48.312;9.246;2022-09-17T12:51:12;93386.63;;;10.38;66.70
71057;BME280;58380;48.312;9.246;2022-09-17T12:59:50;93384.44;;;10.09;64.40
71057;BME280;58380;48.312;9.246;2022-09-17T13:02:32;93356.13;;;9.69;67.62
71057;BME280;58380;48.312;9.246;2022-09-17T13:10:53;93387.38;;;9.45;67.42
71057;BME280;58380;48.312;9.246;2022-09-17T13:22:09;93378.56;;;9.82;66.85
71057;BME280;58380;48.312;9.246;2022-09-17T13:24:38;93383.03;;;9.81;67.32
71057;BME280;58380;48.312;9.246;2022-09-17T13:27:05;93363.56;;;9.92;68.11
71057;BME280;58380;48.312;9.246;2022-09-17T13:32:40;93384.50;;;9.52;68.05
71057;BME280;58380;48.312;9.246;2022-09-17T13:40:31;93394.28;;;9.56;69.27
71057;BME280;58380;48.312;9.246;2022-09-17T13:45:26;93402.41;;;9.49;68.11
71057;BME280;58380;48.312;9.246;2022-09-17T13:47:55;93410.50;;;9.38;69.78
71057;BME280;58380;48.312;9.246;2022-09-17T13:50:27;93412.25;;;9.17;70.05
71057;BME280;58380;48.312;9.246;2022-09-17T13:52:58;93426.38;;;9.05;73.91
71057;BME280;58380;48.312;9.246;2022-09-17T13:55:38;93379.31;;;8.45;74.41
71057;BME280;58380;48.312;9.246;2022-09-17T13:58:10;93457.91;;;8.41;77.30
71057;BME280;58380;48.312;9.246;2022-09-17T14:01:04;93424.78;;;7.69;78.04
71057;BME280;58380;48.312;9.246;2022-09-17T14:22:12;93449.34;;;7.80;88.53
71057;BME280;58380;48.312;9.246;2022-09-17T14:30:23;93449.34;;;7.80;86.17
71057;BME280;58380;48.312;9.246;2022-09-17T14:35:45;93434.59;;;7.78;85.20
71057;BME280;58380;48.312;9.246;2022-09-17T14:41:13;93429.91;;;7.59;87.33
71057;BME280;58380;48.312;9.246;2022-09-17T14:44:23;93454.91;;;8.05;88.38
71057;BME280;58380;48.312;9.246;2022-09-17T14:46:59;93434.09;;;8.04;86.62
71057;BME280;58380;48.312;9.246;2022-09-17T14:49:27;93450.59;;;8.21;85.85
71057;BME280;58380;48.312;9.246;2022-09-17T14:52:00;93455.16;;;8.31;83.67
71057;BME280;58380;48.312;9.246;2022-09-17T14:54:30;93413.06;;;8.04;85.98
71057;BME280;58380;48.312;9.246;2022-09-17T14:59:47;93456.78;;;8.32;83.14
71057;BME280;58380;48.312;9.246;2022-09-17T15:05:31;93451.88;;;8.18;82.91
71057;BME280;58380;48.312;9.246;2022-09-17T15:10:46;93449.91;;;8.31;82.43
71057;BME280;58380;48.312;9.246;2022-09-17T15:13:17;93447.31;;;8.09;81.21
71057;BME280;58380;48.312;9.246;2022-09-17T15:15:55;93406.88;;;7.88;82.99
71057;BME280;58380;48.312;9.246;2022-09-17T15:18:43;93438.97;;;8.39;83.81
71057;BME280;58380;48.312;9.246;2022-09-17T15:23:48;93429.59;;;8.80;79.47
71057;BME280;58380;48.312;9.246;2022-09-17T15:26:21;93449.03;;;9.06;79.51
71057;BME280;58380;48.312;9.246;2022-09-17T15:28:53;93407.88;;;8.95;78.63
71057;BME280;58380;48.312;9.246;2022-09-17T15:31:20;93422.25;;;9.20;78.31
71057;BME280;58380;48.312;9.246;2022-09-17T15:33:46;93408.88;;;9.26;76.87
71057;BME280;58380;48.312;9.246;2022-09-17T15:36:21;93432.34;;;9.33;75.55
71057;BME280;58380;48.312;9.246;2022-09-17T15:38:49;93425.34;;;9.06;77.67
71057;BME280;58380;48.312;9.246;2022-09-17T15:41:27;93419.66;;;9.25;78.34
71057;BME280;58380;48.312;9.246;2022-09-17T15:44:25;93437.34;;;9.29;76.78
71057;BME280;58380;48.312;9.246;2022-09-17T15:46:52;93411.56;;;8.94;76.20
71057;BME280;58380;48.312;9.246;2022-09-17T15:49:35;93440.88;;;9.08;77.33
71057;BME280;58380;48.312;9.246;2022-09-17T15:52:29;93433.84;;;8.81;78.76
71057;BME280;58380;48.312;9.246;2022-09-17T15:54:59;93446.66;;;8.73;80.64
71057;BME280;58380;48.312;9.246;2022-09-17T15:57:24;93441.59;;;8.66;79.58
71057;BME280;58380;48.312;9.246;2022-09-17T15:59:54;93436.28;;;8.61;79.90
71057;BME280;58380;48.312;9.246;2022-09-17T16:02:30;93449.75;;;8.64;79.88
71057;BME280;58380;48.312;9.246;2022-09-17T16:05:41;93444.22;;;8.66;80.27
71057;BME280;58380;48.312;9.246;2022-09-17T16:08:19;93442.34;;;8.61;80.25
71057;BME280;58380;48.312;9.246;2022-09-17T16:10:46;93424.19;;;8.38;80.33
71057;BME280;58380;48.312;9.246;2022-09-17T16:13:11;93426.78;;;8.33;81.15
71057;BME280;58380;48.312;9.246;2022-09-17T16:15:38;93398.13;;;8.04;82.08
71057;BME280;58380;48.312;9.246;2022-09-17T16:18:04;93435.47;;;8.33;82.74
71057;BME280;58380;48.312;9.246;2022-09-17T16:20:30;93449.66;;;8.32;82.60
71057;BME280;58380;48.312;9.246;2022-09-17T16:22:55;93443.06;;;8.30;82.74
71057;BME280;58380;48.312;9.246;2022-09-17T16:25:25;93444.53;;;8.20;82.31
71057;BME280;58380;48.312;9.246;2022-09-17T16:30:33;93440.84;;;8.16;84.09
71057;BME280;58380;48.312;9.246;2022-09-17T16:32:58;93447.97;;;8.21;83.25
71057;BME280;58380;48.312;9.246;2022-09-17T16:35:27;93425.75;;;8.07;83.56
71057;BME280;58380;48.312;9.246;2022-09-17T16:37:54;93463.00;;;8.26;84.29
71057;BME280;58380;48.312;9.246;2022-09-17T16:40:22;93470.03;;;8.20;85.25
71057;BME280;58380;48.312;9.246;2022-09-17T16:42:48;93472.13;;;8.18;84.39
71057;BME280;58380;48.312;9.246;2022-09-17T16:45:15;93475.47;;;8.13;84.98
71057;BME280;58380;48.312;9.246;2022-09-17T16:47:41;93458.03;;;8.02;84.40
71057;BME280;58380;48.312;9.246;2022-09-17T16:50:09;93446.28;;;7.88;85.74
71057;BME280;58380;48.312;9.246;2022-09-17T16:52:36;93395.16;;;7.51;86.09
71057;BME280;58380;48.312;9.246;2022-09-17T16:55:03;93426.25;;;7.60;86.03
71057;BME280;58380;48.312;9.246;2022-09-17T16:57:30;93416.28;;;7.40;85.78
71057;BME280;58380;48.312;9.246;2022-09-17T16:59:56;93473.66;;;7.70;86.24
71057;BME280;58380;48.312;9.246;2022-09-17T17:02:22;93467.50;;;7.59;86.33
71057;BME280;58380;48.312;9.246;2022-09-17T17:04:47;93460.28;;;7.49;86.02
71057;BME280;58380;48.312;9.246;2022-09-17T17:07:13;93436.44;;;7.34;86.33
71057;BME280;58380;48.312;9.246;2022-09-17T17:09:38;93438.78;;;7.35;86.46
71057;BME280;58380;48.312;9.246;2022-09-17T17:12:04;93431.50;;;7.21;86.79
71057;BME280;58380;48.312;9.246;2022-09-17T17:14:30;93466.25;;;7.45;86.65
71057;BME280;58380;48.312;9.246;2022-09-17T17:16:55;93446.31;;;7.27;86.09
71057;BME280;58380;48.312;9.246;2022-09-17T17:19:21;93465.31;;;7.34;86.37
71057;BME280;58380;48.312;9.246;2022-09-17T17:21:49;93474.47;;;7.31;86.88
71057;BME280;58380;48.312;9.246;2022-09-17T17:24:15;93453.47;;;7.15;85.96
71057;BME280;58380;48.312;9.246;2022-09-17T17:26:41;93459.03;;;7.18;86.59
71057;BME280;58380;48.312;9.246;2022-09-17T17:29:06;93410.94;;;6.79;87.22
71057;BME280;58380;48.312;9.246;2022-09-17T17:31:32;93480.28;;;7.17;87.12
71057;BME280;58380;48.312;9.246;2022-09-17T17:33:58;93460.31;;;6.99;87.72
71057;BME280;58380;48.312;9.246;2022-09-17T17:36:24;93496.13;;;7.22;86.84
71057;BME280;58380;48.312;9.246;2022-09-17T17:38:49;93471.06;;;7.14;86.93
71057;BME280;58380;48.312;9.246;2022-09-17T17:41:15;93493.78;;;7.25;87.50
71057;BME280;58380;48.312;9.246;2022-09-17T17:43:42;93471.84;;;7.15;86.95
71057;BME280;58380;48.312;9.246;2022-09-17T17:46:09;93486.63;;;7.38;87.64
71057;BME280;58380;48.312;9.246;2022-09-17T17:48:36;93467.53;;;7.25;86.36
71057;BME280;58380;48.312;9.246;2022-09-17T17:51:03;93493.06;;;7.47;86.42
71057;BME280;58380;48.312;9.246;2022-09-17T17:53:30;93474.34;;;7.43;85.62
71057;BME280;58380;48.312;9.246;2022-09-17T17:56:01;93474.34;;;7.43;86.68
71057;BME280;58380;48.312;9.246;2022-09-17T17:58:29;93470.38;;;7.41;85.78
71057;BME280;58380;48.312;9.246;2022-09-17T18:00:55;93483.91;;;7.49;85.86
71057;BME280;58380;48.312;9.246;2022-09-17T18:03:21;93503.78;;;7.45;86.52
71057;BME280;58380;48.312;9.246;2022-09-17T18:05:54;93499.16;;;7.52;87.88
71057;BME280;58380;48.312;9.246;2022-09-17T18:08:23;93471.22;;;7.24;87.92
71057;BME280;58380;48.312;9.246;2022-09-17T18:13:18;93484.34;;;7.24;87.51
71057;BME280;58380;48.312;9.246;2022-09-17T18:15:54;93517.91;;;7.39;88.82
71057;BME280;58380;48.312;9.246;2022-09-17T18:18:23;93517.00;;;7.33;88.26
71057;BME280;58380;48.312;9.246;2022-09-17T18:20:51;93516.63;;;7.25;89.79
71057;BME280;58380;48.312;9.246;2022-09-17T18:23:19;93497.75;;;7.11;88.34
71057;BME280;58380;48.312;9.246;2022-09-17T18:25:56;93511.78;;;7.17;88.75
71057;BME280;58380;48.312;9.246;2022-09-17T18:28:23;93523.94;;;7.23;88.58
71057;BME280;58380;48.312;9.246;2022-09-17T18:30:49;93521.00;;;7.19;88.24
71057;BME280;58380;48.312;9.246;2022-09-17T18:33:23;93503.44;;;7.03;87.54
71057;BME280;58380;48.312;9.246;2022-09-17T18:35:52;93509.53;;;7.08;87.85
71057;BME280;58380;48.312;9.246;2022-09-17T18:38:23;93515.91;;;7.12;87.71
71057;BME280;58380;48.312;9.246;2022-09-17T18:40:49;93502.94;;;7.06;87.17
71057;BME280;58380;48.312;9.246;2022-09-17T18:43:15;93514.41;;;7.00;87.79
71057;BME280;58380;48.312;9.246;2022-09-17T18:45:40;93529.66;;;7.03;88.25
71057;BME280;58380;48.312;9.246;2022-09-17T18:48:06;93522.84;;;7.02;88.39
71057;BME280;58380;48.312;9.246;2022-09-17T18:50:34;93530.53;;;7.08;88.75
71057;BME280;58380;48.312;9.246;2022-09-17T18:53:00;93499.13;;;6.80;88.87
71057;BME280;58380;48.312;9.246;2022-09-17T18:55:26;93527.19;;;6.96;88.88
71057;BME280;58380;48.312;9.246;2022-09-17T18:57:52;93536.41;;;6.99;88.82
71057;BME280;58380;48.312;9.246;2022-09-17T19:00:19;93539.59;;;7.01;89.34
71057;BME280;58380;48.312;9.246;2022-09-17T19:02:49;93522.59;;;6.86;89.45
71057;BME280;58380;48.312;9.246;2022-09-17T19:05:15;93533.00;;;6.98;89.42
71057;BME280;58380;48.312;9.246;2022-09-17T19:07:43;93535.13;;;7.01;88.82
71057;BME280;58380;48.312;9.246;2022-09-17T19:10:09;93520.28;;;6.90;88.84
71057;BME280;58380;48.312;9.246;2022-09-17T19:12:35;93524.25;;;6.93;88.36
71057;BME280;58380;48.312;9.246;2022-09-17T19:15:00;93518.88;;;6.99;88.48
71057;BME280;58380;48.312;9.246;2022-09-17T19:17:26;93554.56;;;7.17;88.39
71057;BME280;58380;48.312;9.246;2022-09-17T19:19:52;93530.22;;;7.05;89.02
71057;BME280;58380;48.312;9.246;2022-09-17T19:22:17;93556.50;;;7.22;89.49
71057;BME280;58380;48.312;9.246;2022-09-17T19:24:43;93519.31;;;6.96;89.07
71057;BME280;58380;48.312;9.246;2022-09-17T19:27:08;93521.78;;;7.03;88.59
71057;BME280;58380;48.312;9.246;2022-09-17T19:29:34;93538.59;;;7.02;88.86
71057;BME280;58380;48.312;9.246;2022-09-17T19:31:59;93553.84;;;7.05;89.54
71057;BME280;58380;48.312;9.246;2022-09-17T19:34:25;93551.44;;;7.03;90.37
71057;BME280;58380;48.312;9.246;2022-09-17T19:36:50;93548.25;;;7.01;89.95
71057;BME280;58380;48.312;9.246;2022-09-17T19:39:16;93548.03;;;7.03;90.18
71057;BME280;58380;48.312;9.246;2022-09-17T19:41:42;93580.56;;;7.19;89.92
71057;BME280;58380;48.312;9.246;2022-09-17T19:44:07;93536.03;;;6.90;90.53
71057;BME280;58380;48.312;9.246;2022-09-17T19:46:33;93568.50;;;7.18;90.64
71057;BME280;58380;48.312;9.246;2022-09-17T19:48:59;93514.16;;;6.84;90.38
71057;BME280;58380;48.312;9.246;2022-09-17T19:51:26;93566.34;;;7.15;89.97
71057;BME280;58380;48.312;9.246;2022-09-17T19:53:54;93579.00;;;7.18;89.31
71057;BME280;58380;48.312;9.246;2022-09-17T19:56:22;93567.06;;;7.10;90.00
71057;BME280;58380;48.312;9.246;2022-09-17T19:58:49;93539.44;;;6.90;90.05
71057;BME280;58380;48.312;9.246;2022-09-17T20:01:15;93584.16;;;7.12;89.00
71057;BME280;58380;48.312;9.246;2022-09-17T20:03:43;93568.00;;;7.04;89.16
71057;BME280;58380;48.312;9.246;2022-09-17T20:06:14;93559.09;;;7.05;89.03
71057;BME280;58380;48.312;9.246;2022-09-17T20:08:46;93573.56;;;7.07;89.53
71057;BME280;58380;48.312;9.246;2022-09-17T20:11:14;93568.56;;;7.06;90.11
71057;BME280;58380;48.312;9.246;2022-09-17T20:13:41;93550.19;;;6.89;90.28
71057;BME280;58380;48.312;9.246;2022-09-17T20:16:09;93585.91;;;7.07;90.15
71057;BME280;58380;48.312;9.246;2022-09-17T20:18:40;93551.34;;;6.81;90.53
71057;BME280;58380;48.312;9.246;2022-09-17T20:21:13;93587.78;;;6.95;92.76
71057;BME280;58380;48.312;9.246;2022-09-17T20:23:43;93574.94;;;6.81;94.02
71057;BME280;58380;48.312;9.246;2022-09-17T20:26:10;93581.47;;;6.79;94.97
71057;BME280;58380;48.312;9.246;2022-09-17T20:28:37;93576.13;;;6.74;95.21
71057;BME280;58380;48.312;9.246;2022-09-17T20:31:07;93600.06;;;6.77;95.39
71057;BME280;58380;48.312;9.246;2022-09-17T20:33:35;93619.09;;;6.84;95.83
71057;BME280;58380;48.312;9.246;2022-09-17T20:36:04;93626.75;;;6.45;91.71
71057;BME280;58380;48.312;9.246;2022-09-17T20:38:34;93590.47;;;5.67;90.16
71057;BME280;58380;48.312;9.246;2022-09-17T20:41:01;93633.28;;;5.84;90.72
71057;BME280;58380;48.312;9.246;2022-09-17T20:43:32;93604.81;;;5.52;92.29
71057;BME280;58380;48.312;9.246;2022-09-17T20:45:58;93613.22;;;5.43;94.07
71057;BME280;58380;48.312;9.246;2022-09-17T20:48:24;93608.31;;;5.46;93.61
71057;BME280;58380;48.312;9.246;2022-09-17T20:50:57;93633.81;;;5.39;94.95